Decoded Metar for DIAP (ABIDJAN in IVORY COAST) (IATA:ABJ) | Meteo·Mobile Aviation Weather
aviador You're here:

DIAP Decoded Metar

ABIDJAN in IVORY COAST
Report Time2019-01-19 16:30:00
UTC Time2019-01-19 17:00:27
Flight Rules vfr VFR
Wind240° at 09 kt
W.Decomp.*RWY 21: 7.4 kt HW 5.2 kt RCW
W.Rank240° ranks 1
Current wind is above 240° avg. (6.8)
Visibility9999 m
Phenomena:N/A
Clouds:Few 013 Hf
Expected CloudBase > 2,000 ft AGL from Temp-Dew spread
CeilingNone
Temp30°C (ISA +15)
Dew Point25°C (75% RH)
Heat Index36.3°C
QNH1011 hPa
Density Alt2,234 ft
Elevation26 ft
Report Wrong Elevation
Raw Report
METAR DIAP 191630Z 24009KT 9999 FEW013 30/25 Q1011 NOSIG=

Extra information for DIAP:More info

Metar Taf Metar & Taf Last 4 Metars F.Rules Stats Wind Profile Meteogram Temp Stats Airport Information Weather charts Add Link Nearby VenuesMetar ALERT Operation Metar Decoded Social comments